Portada
METAR-TAF:

METAR-TAF

Aeroports :

Cascavel, Paranà, Brasil

latitud: 25-00-08S, longitud: 53-30-07W, altitud: 754 m

Observació

L'informe es va fer fa 4 hores i 30 minuts, a les 22:04 UTC
Vent 11 kt del Est/Nord-Est
Temperatura 20°C
Humitat 73%
Pressió 1012 hPa
Visibilitat 10 km o més
Escasses núvols a una alçada de 3000 ft
Cel ennuvolat a una alçada de 7000 ft

METAR: SBCA 172204Z 06011KT 9999 FEW030 BKN070 20/15 Q1012

Hora: 23:34 (02:34 UTC)


TAF: manca

Observacions i pronòstics meteorològics de més de 4000 aeroports (METAR i TAF).

Les estacions disponibles són els punts grocs i vermells al mapa.

Posi el ratolí al punt desitjat per veure el nom de l'estació.

Feu clic per veure les observacions i els pronòstics meteorològics.

Per canviar el mapa: feu clic els botons verds amb una creu de color negre per apropar; al botó verd amb un guió per allunyar la imatge; o en les fletxes verdes per a mapes adjacents.


METAR-TAF: